Flood From: 18-02-2018 16:00 Until: 19-02-2018 16:00 warning for: Flood Level: Yellow info button

Although rather usual in this region, locally or potentially dangerous phenomena are expected. (such as local winds, summer thunderstorms, rising streams or high waves) Be aware and pay attention to the latest weather updates, especially if you carry out activities exposed to weather or close to a stream or shoreline. 


Meteo18 Weather Cam more information Meteo18 Weather Cam


Thunder radar more information blitzortung!


Rain radar more information rain snow radar


Visit our other weather sites:

Template documentation
and downloads

And another site



Weather Underground History page Text

Daily Summary for January 7, 2018 Units:  Both    English   Metric
« Previous Day
Next Day »
Daily Weekly Monthly Yearly Custom
  High: Low: Average:
Temperature: TemperatureC °F /  -17.8 °C 6.2 °F /  -14.3 °C 7.6 °F /  -13.6 °C
Dew Point: DewpointC °F /  -17.8 °C 5.5 °F /  -14.7 °C 6.5 °F /  -14.2 °C
Humidity: Humidity % 90 % 93 %
Wind Speed: WindSpeedKMH mph /  0 km/h - 14.3 mph /  23 km/h
Wind Gust: WindSpeedGustKMH mph /  0 km/h - -
Wind:- - ENE
Pressure: PressurehPa in /  0 hPa 1008.4 in /  34144.4 hPa -
Precipitation: 1.5 in /  38.1 mm    
Historical Graphs
 
 
Tabular Data for January 7, 2018
Time Temperature Dew Point Pressure Wind Wind Speed Wind Gust Humidity Rainfall Rate (Hourly)
TemperatureC °F /  -17.8 °C DewpointC °F /  -17.8 °C PressurehPa in /  0 hPa Calm     Humidity % HourlyPrecipMM in /  0 mm
00:04 6.2 °F /  -14.3 °C 5.5 °F /  -14.7 °C 1008.7 in /  34154.6 hPa NNE 11.1 mph /  17.9 km/h 24.1 mph /  38.8 km/h 95 % 0.0 in /  0 mm
00:06 6.2 °F /  -14.3 °C 5.5 °F /  -14.7 °C 1008.7 in /  34154.6 hPa North 13.0 mph /  20.9 km/h 16.1 mph /  25.9 km/h 95 % 0.0 in /  0 mm
00:14 6.2 °F /  -14.3 °C 5.5 °F /  -14.7 °C 1008.7 in /  34154.6 hPa NE 3.2 mph /  5.1 km/h 19.3 mph /  31.1 km/h 95 % 0.0 in /  0 mm
00:20 6.2 °F /  -14.3 °C 5.5 °F /  -14.7 °C 1008.7 in /  34154.6 hPa ENE 4.7 mph /  7.6 km/h 20.9 mph /  33.6 km/h 95 % 0.0 in /  0 mm
00:26 6.2 °F /  -14.3 °C 5.5 °F /  -14.7 °C 1008.7 in /  34154.6 hPa NNE 11.1 mph /  17.9 km/h 19.3 mph /  31.1 km/h 95 % 0.0 in /  0 mm
00:32 6.2 °F /  -14.3 °C 5.5 °F /  -14.7 °C 1009.0 in /  34164.7 hPa NE 9.7 mph /  15.6 km/h 14.5 mph /  23.3 km/h 95 % 0.0 in /  0 mm
00:40 6.3 °F /  -14.3 °C 5.6 °F /  -14.7 °C 1009.0 in /  34164.7 hPa North 14.3 mph /  23 km/h 20.9 mph /  33.6 km/h 95 % 0.0 in /  0 mm
00:51 6.3 °F /  -14.3 °C 5.6 °F /  -14.7 °C 1009.0 in /  34164.7 hPa NNE 3.2 mph /  5.1 km/h 17.7 mph /  28.5 km/h 95 % 0.0 in /  0 mm
00:58 6.3 °F /  -14.3 °C 5.6 °F /  -14.7 °C 1009.0 in /  34164.7 hPa NE 13.0 mph /  20.9 km/h 17.7 mph /  28.5 km/h 95 % 0.0 in /  0 mm
01:04 6.4 °F /  -14.2 °C 5.7 °F /  -14.6 °C 1008.7 in /  34154.6 hPa NE 13.0 mph /  20.9 km/h 24.1 mph /  38.8 km/h 95 % 0.0 in /  0 mm
01:10 6.4 °F /  -14.2 °C 5.7 °F /  -14.6 °C 1008.7 in /  34154.6 hPa North 16.3 mph /  26.2 km/h 25.7 mph /  41.4 km/h 95 % 0.0 in /  0 mm
01:12 6.4 °F /  -14.2 °C 5.8 °F /  -14.6 °C 1008.7 in /  34154.6 hPa NE 14.3 mph /  23 km/h 20.9 mph /  33.6 km/h 96 % 0.0 in /  0 mm
01:20 6.4 °F /  -14.2 °C 5.8 °F /  -14.6 °C 1008.7 in /  34154.6 hPa NE 9.7 mph /  15.6 km/h 19.3 mph /  31.1 km/h 96 % 0.0 in /  0 mm
01:28 6.4 °F /  -14.2 °C 5.8 °F /  -14.6 °C 1009.0 in /  34164.7 hPa NE 9.7 mph /  15.6 km/h 22.5 mph /  36.2 km/h 96 % 0.0 in /  0 mm
01:36 6.4 °F /  -14.2 °C 5.8 °F /  -14.6 °C 1009.0 in /  34164.7 hPa NE 7.9 mph /  12.7 km/h 16.1 mph /  25.9 km/h 96 % 0.0 in /  0 mm
01:42 6.4 °F /  -14.2 °C 5.8 °F /  -14.6 °C 1009.0 in /  34164.7 hPa NE 11.1 mph /  17.9 km/h 20.9 mph /  33.6 km/h 96 % 0.0 in /  0 mm
01:46 6.4 °F /  -14.2 °C 5.8 °F /  -14.6 °C 1009.0 in /  34164.7 hPa ENE 14.3 mph /  23 km/h 17.7 mph /  28.5 km/h 96 % 0.0 in /  0 mm
01:48 6.4 °F /  -14.2 °C 5.8 °F /  -14.6 °C 1009.0 in /  34164.7 hPa NE 14.3 mph /  23 km/h 22.5 mph /  36.2 km/h 96 % 0.0 in /  0 mm
01:57 6.4 °F /  -14.2 °C 5.8 °F /  -14.6 °C 1009.0 in /  34164.7 hPa North 7.9 mph /  12.7 km/h 25.7 mph /  41.4 km/h 96 % 0.0 in /  0 mm
02:02 6.4 °F /  -14.2 °C 5.8 °F /  -14.6 °C 1009.0 in /  34164.7 hPa NNE 11.1 mph /  17.9 km/h 19.3 mph /  31.1 km/h 96 % 0.0 in /  0 mm
02:08 6.4 °F /  -14.2 °C 6.0 °F /  -14.4 °C 1009.0 in /  34164.7 hPa NNE 9.7 mph /  15.6 km/h 25.7 mph /  41.4 km/h 97 % 0.0 in /  0 mm
02:14 6.4 °F /  -14.2 °C 6.0 °F /  -14.4 °C 1009.0 in /  34164.7 hPa NNE 7.9 mph /  12.7 km/h 22.5 mph /  36.2 km/h 97 % 0.0 in /  0 mm
02:16 6.4 °F /  -14.2 °C 6.0 °F /  -14.4 °C 1009.0 in /  34164.7 hPa NE 13.0 mph /  20.9 km/h 19.3 mph /  31.1 km/h 97 % 0.0 in /  0 mm
02:22 6.4 °F /  -14.2 °C 6.0 °F /  -14.4 °C 1009.0 in /  34164.7 hPa NNE 13.0 mph /  20.9 km/h 19.3 mph /  31.1 km/h 97 % 0.0 in /  0 mm
02:28 6.4 °F /  -14.2 °C 6.0 °F /  -14.4 °C 1009.0 in /  34164.7 hPa NE 11.1 mph /  17.9 km/h 22.5 mph /  36.2 km/h 97 % 0.0 in /  0 mm
02:30 6.5 °F /  -14.2 °C 6.1 °F /  -14.4 °C 1009.0 in /  34164.7 hPa NE 6.4 mph /  10.3 km/h 22.5 mph /  36.2 km/h 97 % 0.0 in /  0 mm
02:36 6.5 °F /  -14.2 °C 6.1 °F /  -14.4 °C 1009.0 in /  34164.7 hPa NNE 9.7 mph /  15.6 km/h 22.5 mph /  36.2 km/h 97 % 0.0 in /  0 mm
02:45 6.5 °F /  -14.2 °C 6.1 °F /  -14.4 °C 1009.0 in /  34164.7 hPa NNE 9.7 mph /  15.6 km/h 17.7 mph /  28.5 km/h 97 % 0.0 in /  0 mm
02:51 6.5 °F /  -14.2 °C 6.1 °F /  -14.4 °C 1008.7 in /  34154.6 hPa NNE 6.4 mph /  10.3 km/h 20.9 mph /  33.6 km/h 97 % 0.3 in /  7.62 mm
03:02 6.6 °F /  -14.1 °C 6.2 °F /  -14.3 °C 1009.0 in /  34164.7 hPa North 4.7 mph /  7.6 km/h 12.9 mph /  20.8 km/h 97 % 0.3 in /  7.62 mm
03:10 6.6 °F /  -14.1 °C 6.2 °F /  -14.3 °C 1009.4 in /  34178.3 hPa NNE 7.9 mph /  12.7 km/h 19.3 mph /  31.1 km/h 97 % 0.5 in /  12.7 mm
03:16 6.7 °F /  -14.1 °C 6.3 °F /  -14.3 °C 1009.0 in /  34164.7 hPa NE 9.7 mph /  15.6 km/h 20.9 mph /  33.6 km/h 97 % 0.5 in /  12.7 mm
03:22 6.7 °F /  -14.1 °C 6.3 °F /  -14.3 °C 1009.0 in /  34164.7 hPa NE 7.9 mph /  12.7 km/h 20.9 mph /  33.6 km/h 97 % 0.5 in /  12.7 mm
03:28 6.7 °F /  -14.1 °C 6.3 °F /  -14.3 °C 1009.0 in /  34164.7 hPa NNE 11.1 mph /  17.9 km/h 16.1 mph /  25.9 km/h 97 % 0.8 in /  20.32 mm
03:36 6.7 °F /  -14.1 °C 6.3 °F /  -14.3 °C 1009.0 in /  34164.7 hPa NE 11.1 mph /  17.9 km/h 17.7 mph /  28.5 km/h 97 % 0.8 in /  20.32 mm
03:42 6.7 °F /  -14.1 °C 6.3 °F /  -14.3 °C 1009.0 in /  34164.7 hPa North 6.4 mph /  10.3 km/h 12.9 mph /  20.8 km/h 97 % 0.8 in /  20.32 mm
03:48 6.7 °F /  -14.1 °C 6.3 °F /  -14.3 °C 1009.4 in /  34178.3 hPa NNE 14.3 mph /  23 km/h 22.5 mph /  36.2 km/h 97 % 0.8 in /  20.32 mm
03:54 6.7 °F /  -14.1 °C 6.3 °F /  -14.3 °C 1009.0 in /  34164.7 hPa ENE 6.4 mph /  10.3 km/h 19.3 mph /  31.1 km/h 97 % 0.8 in /  20.32 mm
04:00 6.8 °F /  -14 °C 6.4 °F /  -14.2 °C 1009.0 in /  34164.7 hPa NNW 6.4 mph /  10.3 km/h 24.1 mph /  38.8 km/h 97 % 0.8 in /  20.32 mm
04:03 6.8 °F /  -14 °C 6.4 °F /  -14.2 °C 1009.0 in /  34164.7 hPa NE 13.0 mph /  20.9 km/h 22.5 mph /  36.2 km/h 97 % 0.8 in /  20.32 mm
04:04 6.8 °F /  -14 °C 6.4 °F /  -14.2 °C 1009.0 in /  34164.7 hPa NE 16.3 mph /  26.2 km/h 20.9 mph /  33.6 km/h 97 % 0.8 in /  20.32 mm
04:08 6.8 °F /  -14 °C 6.4 °F /  -14.2 °C 1009.0 in /  34164.7 hPa NNW 9.7 mph /  15.6 km/h 19.3 mph /  31.1 km/h 97 % 0.8 in /  20.32 mm
04:14 6.8 °F /  -14 °C 6.4 °F /  -14.2 °C 1009.0 in /  34164.7 hPa NNE 16.3 mph /  26.2 km/h 25.7 mph /  41.4 km/h 97 % 0.8 in /  20.32 mm
04:20 6.8 °F /  -14 °C 6.4 °F /  -14.2 °C 1009.0 in /  34164.7 hPa North 7.9 mph /  12.7 km/h 22.5 mph /  36.2 km/h 97 % 0.8 in /  20.32 mm
04:26 6.9 °F /  -13.9 °C 6.5 °F /  -14.2 °C 1009.0 in /  34164.7 hPa North 17.7 mph /  28.5 km/h 27.4 mph /  44.1 km/h 97 % 0.8 in /  20.32 mm
04:36 6.9 °F /  -13.9 °C 6.5 °F /  -14.2 °C 1008.7 in /  34154.6 hPa NE 11.1 mph /  17.9 km/h 20.9 mph /  33.6 km/h 97 % 0.5 in /  12.7 mm
04:46 6.9 °F /  -13.9 °C 6.5 °F /  -14.2 °C 1008.7 in /  34154.6 hPa NE 11.1 mph /  17.9 km/h 29.0 mph /  46.7 km/h 97 % 0.5 in /  12.7 mm
04:52 6.9 °F /  -13.9 °C 6.5 °F /  -14.2 °C 1008.7 in /  34154.6 hPa NE 20.9 mph /  33.6 km/h 27.4 mph /  44.1 km/h 97 % 0.5 in /  12.7 mm
04:58 6.9 °F /  -13.9 °C 6.5 °F /  -14.2 °C 1008.7 in /  34154.6 hPa NE 14.3 mph /  23 km/h 27.4 mph /  44.1 km/h 97 % 0.5 in /  12.7 mm
05:04 6.9 °F /  -13.9 °C 6.5 °F /  -14.2 °C 1008.7 in /  34154.6 hPa NNE 19.5 mph /  31.4 km/h 29.0 mph /  46.7 km/h 97 % 0.3 in /  7.62 mm
05:10 6.9 °F /  -13.9 °C 6.5 °F /  -14.2 °C 1008.7 in /  34154.6 hPa ENE 17.7 mph /  28.5 km/h 29.0 mph /  46.7 km/h 97 % 0.3 in /  7.62 mm
05:14 6.9 °F /  -13.9 °C 6.5 °F /  -14.2 °C 1008.7 in /  34154.6 hPa NE 14.3 mph /  23 km/h 24.1 mph /  38.8 km/h 97 % 0.3 in /  7.62 mm
05:20 6.9 °F /  -13.9 °C 6.5 °F /  -14.2 °C 1008.4 in /  34144.4 hPa NE 17.7 mph /  28.5 km/h 27.4 mph /  44.1 km/h 97 % 0.3 in /  7.62 mm
05:26 6.9 °F /  -13.9 °C 6.5 °F /  -14.2 °C 1008.4 in /  34144.4 hPa NE 19.5 mph /  31.4 km/h 32.2 mph /  51.8 km/h 97 % 0.3 in /  7.62 mm
05:39 6.9 °F /  -13.9 °C 6.5 °F /  -14.2 °C 1008.4 in /  34144.4 hPa NE 13.0 mph /  20.9 km/h 32.2 mph /  51.8 km/h 97 % 0.3 in /  7.62 mm
05:44 7.0 °F /  -13.9 °C 6.6 °F /  -14.1 °C 1008.4 in /  34144.4 hPa NE 6.4 mph /  10.3 km/h 25.7 mph /  41.4 km/h 97 % 0.3 in /  7.62 mm
05:50 7.0 °F /  -13.9 °C 6.6 °F /  -14.1 °C 1008.4 in /  34144.4 hPa NE 13.0 mph /  20.9 km/h 29.0 mph /  46.7 km/h 97 % 0.3 in /  7.62 mm
05:56 7.0 °F /  -13.9 °C 6.6 °F /  -14.1 °C 1008.4 in /  34144.4 hPa NE 19.5 mph /  31.4 km/h 29.0 mph /  46.7 km/h 97 % 0.3 in /  7.62 mm
06:02 7.1 °F /  -13.8 °C 6.7 °F /  -14.1 °C 1008.4 in /  34144.4 hPa NE 20.9 mph /  33.6 km/h 27.4 mph /  44.1 km/h 97 % 0.3 in /  7.62 mm
06:08 7.1 °F /  -13.8 °C 6.7 °F /  -14.1 °C 1008.7 in /  34154.6 hPa NNE 19.5 mph /  31.4 km/h 29.0 mph /  46.7 km/h 97 % 0.3 in /  7.62 mm
06:14 7.0 °F /  -13.9 °C 6.6 °F /  -14.1 °C 1008.4 in /  34144.4 hPa NE 27.4 mph /  44.1 km/h 27.4 mph /  44.1 km/h 97 % 0.3 in /  7.62 mm
06:22 7.0 °F /  -13.9 °C 6.6 °F /  -14.1 °C 1008.7 in /  34154.6 hPa NE 24.1 mph /  38.8 km/h 27.4 mph /  44.1 km/h 97 % 0.0 in /  0 mm
06:30 7.1 °F /  -13.8 °C 6.7 °F /  -14.1 °C 1008.7 in /  34154.6 hPa NE 17.7 mph /  28.5 km/h 27.4 mph /  44.1 km/h 97 % 0.0 in /  0 mm
06:36 7.0 °F /  -13.9 °C 6.6 °F /  -14.1 °C 1008.7 in /  34154.6 hPa NNE 20.9 mph /  33.6 km/h 30.6 mph /  49.2 km/h 97 % 0.0 in /  0 mm
06:48 7.1 °F /  -13.8 °C 6.7 °F /  -14.1 °C 1008.7 in /  34154.6 hPa NNE 27.4 mph /  44.1 km/h 29.0 mph /  46.7 km/h 97 % 0.0 in /  0 mm
06:54 7.1 °F /  -13.8 °C 6.7 °F /  -14.1 °C 1008.7 in /  34154.6 hPa NNE 17.7 mph /  28.5 km/h 25.7 mph /  41.4 km/h 97 % 0.0 in /  0 mm
07:00 7.1 °F /  -13.8 °C 6.7 °F /  -14.1 °C 1009.0 in /  34164.7 hPa NE 19.5 mph /  31.4 km/h 29.0 mph /  46.7 km/h 97 % 0.0 in /  0 mm
07:04 7.1 °F /  -13.8 °C 6.7 °F /  -14.1 °C 1009.0 in /  34164.7 hPa NNE 17.7 mph /  28.5 km/h 24.1 mph /  38.8 km/h 97 % 0.0 in /  0 mm
07:06 7.1 °F /  -13.8 °C 6.7 °F /  -14.1 °C 1009.0 in /  34164.7 hPa ENE 14.3 mph /  23 km/h 20.9 mph /  33.6 km/h 97 % 0.0 in /  0 mm
07:13 7.1 °F /  -13.8 °C 6.7 °F /  -14.1 °C 1009.0 in /  34164.7 hPa NE 17.7 mph /  28.5 km/h 27.4 mph /  44.1 km/h 97 % 0.0 in /  0 mm
07:19 7.1 °F /  -13.8 °C 6.7 °F /  -14.1 °C 1009.0 in /  34164.7 hPa NE 22.7 mph /  36.5 km/h 27.4 mph /  44.1 km/h 97 % 0.0 in /  0 mm
07:27 7.1 °F /  -13.8 °C 6.7 °F /  -14.1 °C 1009.0 in /  34164.7 hPa ENE 20.9 mph /  33.6 km/h 30.6 mph /  49.2 km/h 97 % 0.0 in /  0 mm
07:33 7.1 °F /  -13.8 °C 6.7 °F /  -14.1 °C 1009.0 in /  34164.7 hPa NE 25.9 mph /  41.7 km/h 27.4 mph /  44.1 km/h 97 % 0.0 in /  0 mm
07:39 7.1 °F /  -13.8 °C 6.7 °F /  -14.1 °C 1009.0 in /  34164.7 hPa NNE 28.8 mph /  46.3 km/h 37.0 mph /  59.5 km/h 97 % 0.0 in /  0 mm
07:46 7.2 °F /  -13.8 °C 6.6 °F /  -14.1 °C 1009.0 in /  34164.7 hPa NNE 19.5 mph /  31.4 km/h 33.8 mph /  54.4 km/h 96 % 0.0 in /  0 mm
07:57 7.2 °F /  -13.8 °C 6.6 °F /  -14.1 °C 1009.4 in /  34178.3 hPa NE 20.9 mph /  33.6 km/h 27.4 mph /  44.1 km/h 96 % 0.0 in /  0 mm
08:03 7.2 °F /  -13.8 °C 6.6 °F /  -14.1 °C 1009.7 in /  34188.4 hPa NNE 17.7 mph /  28.5 km/h 24.1 mph /  38.8 km/h 96 % 0.0 in /  0 mm
08:09 7.3 °F /  -13.7 °C 6.7 °F /  -14.1 °C 1009.7 in /  34188.4 hPa NE 17.7 mph /  28.5 km/h 25.7 mph /  41.4 km/h 96 % 0.0 in /  0 mm
08:23 7.3 °F /  -13.7 °C 6.7 °F /  -14.1 °C 1010.0 in /  34198.6 hPa NNW 9.7 mph /  15.6 km/h 24.1 mph /  38.8 km/h 96 % 0.0 in /  0 mm
08:29 7.4 °F /  -13.7 °C 6.8 °F /  -14 °C 1009.7 in /  34188.4 hPa North 13.0 mph /  20.9 km/h 30.6 mph /  49.2 km/h 96 % 0.0 in /  0 mm
08:35 7.4 °F /  -13.7 °C 6.8 °F /  -14 °C 1009.7 in /  34188.4 hPa NNW 16.3 mph /  26.2 km/h 33.8 mph /  54.4 km/h 96 % 0.0 in /  0 mm
08:41 7.4 °F /  -13.7 °C 6.8 °F /  -14 °C 1010.0 in /  34198.6 hPa NE 25.9 mph /  41.7 km/h 35.4 mph /  57 km/h 96 % 0.0 in /  0 mm
08:47 7.5 °F /  -13.6 °C 6.8 °F /  -14 °C 1010.0 in /  34198.6 hPa North 11.1 mph /  17.9 km/h 29.0 mph /  46.7 km/h 95 % 0.0 in /  0 mm
08:53 7.6 °F /  -13.6 °C 6.9 °F /  -13.9 °C 1010.0 in /  34198.6 hPa North 11.1 mph /  17.9 km/h 24.1 mph /  38.8 km/h 95 % 0.0 in /  0 mm
08:57 7.6 °F /  -13.6 °C 6.9 °F /  -13.9 °C 1010.0 in /  34198.6 hPa NE 17.7 mph /  28.5 km/h 27.4 mph /  44.1 km/h 95 % 0.0 in /  0 mm
09:13 7.7 °F /  -13.5 °C 6.9 °F /  -13.9 °C 1010.0 in /  34198.6 hPa NE 19.5 mph /  31.4 km/h 32.2 mph /  51.8 km/h 95 % 0.0 in /  0 mm
09:21 7.7 °F /  -13.5 °C 6.8 °F /  -14 °C 1010.0 in /  34198.6 hPa NNE 25.9 mph /  41.7 km/h 29.0 mph /  46.7 km/h 94 % 0.0 in /  0 mm
09:23 7.7 °F /  -13.5 °C 6.8 °F /  -14 °C 1010.0 in /  34198.6 hPa NE 28.8 mph /  46.3 km/h 33.8 mph /  54.4 km/h 94 % 0.0 in /  0 mm
09:27 7.7 °F /  -13.5 °C 6.8 °F /  -14 °C 1010.4 in /  34212.1 hPa NE 20.9 mph /  33.6 km/h 32.2 mph /  51.8 km/h 94 % 0.0 in /  0 mm
09:33 7.8 °F /  -13.4 °C 6.9 °F /  -13.9 °C 1010.4 in /  34212.1 hPa NE 17.7 mph /  28.5 km/h 37.0 mph /  59.5 km/h 94 % 0.0 in /  0 mm
09:41 7.8 °F /  -13.4 °C 6.9 °F /  -13.9 °C 1010.7 in /  34222.3 hPa NNE 14.3 mph /  23 km/h 29.0 mph /  46.7 km/h 94 % 0.0 in /  0 mm
09:43 7.8 °F /  -13.4 °C 6.9 °F /  -13.9 °C 1010.7 in /  34222.3 hPa NNE 19.5 mph /  31.4 km/h 32.2 mph /  51.8 km/h 94 % 0.0 in /  0 mm
09:51 7.9 °F /  -13.4 °C 6.8 °F /  -14 °C 1010.7 in /  34222.3 hPa ENE 9.7 mph /  15.6 km/h 27.4 mph /  44.1 km/h 93 % 0.0 in /  0 mm
10:05 7.9 °F /  -13.4 °C 6.8 °F /  -14 °C 1010.7 in /  34222.3 hPa NE 22.7 mph /  36.5 km/h 29.0 mph /  46.7 km/h 93 % 0.0 in /  0 mm
10:11 7.9 °F /  -13.4 °C 6.8 °F /  -14 °C 1011.1 in /  34235.8 hPa ENE 17.7 mph /  28.5 km/h 25.7 mph /  41.4 km/h 93 % 0.0 in /  0 mm
10:13 7.9 °F /  -13.4 °C 6.8 °F /  -14 °C 1011.1 in /  34235.8 hPa NE 13.0 mph /  20.9 km/h 24.1 mph /  38.8 km/h 93 % 0.0 in /  0 mm
10:19 8.0 °F /  -13.3 °C 6.9 °F /  -13.9 °C 1011.4 in /  34246 hPa NNE 22.7 mph /  36.5 km/h 24.1 mph /  38.8 km/h 93 % 0.0 in /  0 mm
10:27 8.0 °F /  -13.3 °C 6.9 °F /  -13.9 °C 1011.4 in /  34246 hPa NE 17.7 mph /  28.5 km/h 30.6 mph /  49.2 km/h 93 % 0.0 in /  0 mm
10:34 8.0 °F /  -13.3 °C 6.9 °F /  -13.9 °C 1011.4 in /  34246 hPa NE 17.7 mph /  28.5 km/h 24.1 mph /  38.8 km/h 93 % 0.0 in /  0 mm
10:39 8.0 °F /  -13.3 °C 6.9 °F /  -13.9 °C 1011.1 in /  34235.8 hPa NNE 13.0 mph /  20.9 km/h 35.4 mph /  57 km/h 93 % 0.0 in /  0 mm
10:45 8.1 °F /  -13.3 °C 7.0 °F /  -13.9 °C 1011.1 in /  34235.8 hPa NE 33.8 mph /  54.4 km/h 33.8 mph /  54.4 km/h 93 % 0.0 in /  0 mm
10:51 8.1 °F /  -13.3 °C 7.0 °F /  -13.9 °C 1011.4 in /  34246 hPa NNE 28.8 mph /  46.3 km/h 29.0 mph /  46.7 km/h 93 % 0.0 in /  0 mm
10:53 8.1 °F /  -13.3 °C 7.0 °F /  -13.9 °C 1011.4 in /  34246 hPa NNE 19.5 mph /  31.4 km/h 29.0 mph /  46.7 km/h 93 % 0.0 in /  0 mm
10:59 8.1 °F /  -13.3 °C 7.0 °F /  -13.9 °C 1011.1 in /  34235.8 hPa ENE 37.0 mph /  59.5 km/h 38.6 mph /  62.1 km/h 93 % 0.0 in /  0 mm
11:05 8.2 °F /  -13.2 °C 7.1 °F /  -13.8 °C 1011.1 in /  34235.8 hPa NE 41.7 mph /  67.1 km/h 41.8 mph /  67.3 km/h 93 % 0.0 in /  0 mm
11:11 8.2 °F /  -13.2 °C 7.1 °F /  -13.8 °C 1010.7 in /  34222.3 hPa NNE 25.9 mph /  41.7 km/h 32.2 mph /  51.8 km/h 93 % 0.0 in /  0 mm
11:21 8.3 °F /  -13.2 °C 7.1 °F /  -13.8 °C 1010.7 in /  34222.3 hPa NNE 27.4 mph /  44.1 km/h 38.6 mph /  62.1 km/h 92 % 0.0 in /  0 mm
11:23 8.3 °F /  -13.2 °C 7.1 °F /  -13.8 °C 1010.7 in /  34222.3 hPa NE 25.9 mph /  41.7 km/h 35.4 mph /  57 km/h 92 % 0.0 in /  0 mm
11:27 8.4 °F /  -13.1 °C 7.2 °F /  -13.8 °C 1010.7 in /  34222.3 hPa NE 19.5 mph /  31.4 km/h 33.8 mph /  54.4 km/h 92 % 0.0 in /  0 mm
11:35 8.4 °F /  -13.1 °C 7.2 °F /  -13.8 °C 1010.7 in /  34222.3 hPa NE 24.1 mph /  38.8 km/h 33.8 mph /  54.4 km/h 92 % 0.0 in /  0 mm
11:41 8.4 °F /  -13.1 °C 7.2 °F /  -13.8 °C 1010.7 in /  34222.3 hPa NNE 17.7 mph /  28.5 km/h 29.0 mph /  46.7 km/h 92 % 0.0 in /  0 mm
11:49 8.6 °F /  -13 °C 7.4 °F /  -13.7 °C 1010.7 in /  34222.3 hPa ENE 14.3 mph /  23 km/h 25.7 mph /  41.4 km/h 92 % 0.0 in /  0 mm
11:57 8.6 °F /  -13 °C 7.4 °F /  -13.7 °C 1011.1 in /  34235.8 hPa NNE 24.1 mph /  38.8 km/h 27.4 mph /  44.1 km/h 92 % 0.0 in /  0 mm
11:59 8.7 °F /  -12.9 °C 7.3 °F /  -13.7 °C 1011.1 in /  34235.8 hPa NE 22.7 mph /  36.5 km/h 37.0 mph /  59.5 km/h 91 % 0.0 in /  0 mm
12:03 8.7 °F /  -12.9 °C 7.5 °F /  -13.6 °C 1011.1 in /  34235.8 hPa NE 14.3 mph /  23 km/h 25.7 mph /  41.4 km/h 92 % 0.0 in /  0 mm
12:09 8.7 °F /  -12.9 °C 7.3 °F /  -13.7 °C 1011.4 in /  34246 hPa ENE 19.5 mph /  31.4 km/h 25.7 mph /  41.4 km/h 91 % 0.0 in /  0 mm
12:15 8.8 °F /  -12.9 °C 7.4 °F /  -13.7 °C 1011.4 in /  34246 hPa NE 19.5 mph /  31.4 km/h 24.1 mph /  38.8 km/h 91 % 0.0 in /  0 mm
12:21 8.8 °F /  -12.9 °C 7.4 °F /  -13.7 °C 1011.4 in /  34246 hPa NE 16.3 mph /  26.2 km/h 25.7 mph /  41.4 km/h 91 % 0.0 in /  0 mm
12:31 8.9 °F /  -12.8 °C 7.5 °F /  -13.6 °C 1011.4 in /  34246 hPa NNE 13.0 mph /  20.9 km/h 27.4 mph /  44.1 km/h 91 % 0.0 in /  0 mm
12:37 8.9 °F /  -12.8 °C 7.5 °F /  -13.6 °C 1011.4 in /  34246 hPa NNE 13.0 mph /  20.9 km/h 30.6 mph /  49.2 km/h 91 % 0.0 in /  0 mm
12:43 8.9 °F /  -12.8 °C 7.5 °F /  -13.6 °C 1011.4 in /  34246 hPa NNE 16.3 mph /  26.2 km/h 29.0 mph /  46.7 km/h 91 % 0.0 in /  0 mm
12:49 8.8 °F /  -12.9 °C 7.4 °F /  -13.7 °C 1011.4 in /  34246 hPa NE 25.9 mph /  41.7 km/h 29.0 mph /  46.7 km/h 91 % 0.0 in /  0 mm
12:57 8.9 °F /  -12.8 °C 7.5 °F /  -13.6 °C 1011.4 in /  34246 hPa NNE 20.9 mph /  33.6 km/h 30.6 mph /  49.2 km/h 91 % 0.0 in /  0 mm
13:03 8.9 °F /  -12.8 °C 7.5 °F /  -13.6 °C 1011.1 in /  34235.8 hPa NNE 16.3 mph /  26.2 km/h 35.4 mph /  57 km/h 91 % 0.0 in /  0 mm
13:09 8.9 °F /  -12.8 °C 7.5 °F /  -13.6 °C 1011.1 in /  34235.8 hPa NNE 28.8 mph /  46.3 km/h 29.0 mph /  46.7 km/h 91 % 0.0 in /  0 mm
13:16 8.9 °F /  -12.8 °C 7.5 °F /  -13.6 °C 1011.1 in /  34235.8 hPa East 9.7 mph /  15.6 km/h 27.4 mph /  44.1 km/h 91 % 0.0 in /  0 mm
13:21 8.9 °F /  -12.8 °C 7.5 °F /  -13.6 °C 1011.4 in /  34246 hPa NNE 19.5 mph /  31.4 km/h 27.4 mph /  44.1 km/h 91 % 0.0 in /  0 mm
13:23 8.9 °F /  -12.8 °C 7.5 °F /  -13.6 °C 1011.4 in /  34246 hPa North 25.9 mph /  41.7 km/h 27.4 mph /  44.1 km/h 91 % 0.0 in /  0 mm
13:29 8.9 °F /  -12.8 °C 7.3 °F /  -13.7 °C 1011.7 in /  34256.2 hPa NE 11.1 mph /  17.9 km/h 29.0 mph /  46.7 km/h 90 % 0.0 in /  0 mm
13:35 8.9 °F /  -12.8 °C 7.3 °F /  -13.7 °C 1011.4 in /  34246 hPa NE 19.5 mph /  31.4 km/h 25.7 mph /  41.4 km/h 90 % 0.0 in /  0 mm
13:41 8.9 °F /  -12.8 °C 7.5 °F /  -13.6 °C 1011.7 in /  34256.2 hPa NE 11.1 mph /  17.9 km/h 27.4 mph /  44.1 km/h 91 % 0.0 in /  0 mm
13:47 8.9 °F /  -12.8 °C 7.3 °F /  -13.7 °C 1011.7 in /  34256.2 hPa NE 13.0 mph /  20.9 km/h 29.0 mph /  46.7 km/h 90 % 0.0 in /  0 mm
13:53 8.9 °F /  -12.8 °C 7.5 °F /  -13.6 °C 1011.7 in /  34256.2 hPa NE 17.7 mph /  28.5 km/h 29.0 mph /  46.7 km/h 91 % 0.0 in /  0 mm
13:59 8.8 °F /  -12.9 °C 7.2 °F /  -13.8 °C 1011.7 in /  34256.2 hPa NE 14.3 mph /  23 km/h 30.6 mph /  49.2 km/h 90 % 0.0 in /  0 mm
14:07 8.8 °F /  -12.9 °C 7.2 °F /  -13.8 °C 1011.7 in /  34256.2 hPa North 22.7 mph /  36.5 km/h 24.1 mph /  38.8 km/h 90 % 0.0 in /  0 mm
14:13 8.8 °F /  -12.9 °C 7.2 °F /  -13.8 °C 1011.7 in /  34256.2 hPa NNE 27.4 mph /  44.1 km/h 27.4 mph /  44.1 km/h 90 % 0.0 in /  0 mm
14:19 8.8 °F /  -12.9 °C 7.2 °F /  -13.8 °C 1011.7 in /  34256.2 hPa NE 14.3 mph /  23 km/h 24.1 mph /  38.8 km/h 90 % 0.0 in /  0 mm
14:25 8.8 °F /  -12.9 °C 7.2 °F /  -13.8 °C 1012.1 in /  34269.7 hPa NNE 6.4 mph /  10.3 km/h 11.3 mph /  18.2 km/h 90 % 0.0 in /  0 mm
14:31 8.8 °F /  -12.9 °C 7.2 °F /  -13.8 °C 1012.1 in /  34269.7 hPa NNE 13.0 mph /  20.9 km/h 17.7 mph /  28.5 km/h 90 % 0.0 in /  0 mm
14:37 8.7 °F /  -12.9 °C 7.2 °F /  -13.8 °C 1012.1 in /  34269.7 hPa North 13.0 mph /  20.9 km/h 22.5 mph /  36.2 km/h 90 % 0.0 in /  0 mm
14:43 8.7 °F /  -12.9 °C 7.2 °F /  -13.8 °C 1011.7 in /  34256.2 hPa NNE 17.7 mph /  28.5 km/h 29.0 mph /  46.7 km/h 90 % 0.0 in /  0 mm
14:49 8.7 °F /  -12.9 °C 7.2 °F /  -13.8 °C 1011.7 in /  34256.2 hPa NNE 19.5 mph /  31.4 km/h 25.7 mph /  41.4 km/h 90 % 0.0 in /  0 mm
14:57 8.7 °F /  -12.9 °C 7.2 °F /  -13.8 °C 1012.4 in /  34279.9 hPa ENE 22.7 mph /  36.5 km/h 30.6 mph /  49.2 km/h 90 % 0.0 in /  0 mm
15:03 8.7 °F /  -12.9 °C 7.2 °F /  -13.8 °C 1012.4 in /  34279.9 hPa ENE 25.9 mph /  41.7 km/h 25.9 mph /  41.7 km/h 90 % 0.0 in /  0 mm
15:11 8.7 °F /  -12.9 °C 7.2 °F /  -13.8 °C 1012.4 in /  34279.9 hPa NE 17.7 mph /  28.5 km/h 24.1 mph /  38.8 km/h 90 % 0.0 in /  0 mm
15:17 8.6 °F /  -13 °C 7.1 °F /  -13.8 °C 1012.4 in /  34279.9 hPa NE 19.5 mph /  31.4 km/h 24.1 mph /  38.8 km/h 90 % 0.0 in /  0 mm
15:21 8.6 °F /  -13 °C 7.1 °F /  -13.8 °C 1012.4 in /  34279.9 hPa NE 14.3 mph /  23 km/h 25.7 mph /  41.4 km/h 90 % 0.0 in /  0 mm
15:23 8.6 °F /  -13 °C 7.1 °F /  -13.8 °C 1012.4 in /  34279.9 hPa NNE 7.9 mph /  12.7 km/h 24.1 mph /  38.8 km/h 90 % 0.0 in /  0 mm
15:27 8.6 °F /  -13 °C 7.1 °F /  -13.8 °C 1012.4 in /  34279.9 hPa NNE 17.7 mph /  28.5 km/h 20.9 mph /  33.6 km/h 90 % 0.0 in /  0 mm
15:33 8.6 °F /  -13 °C 7.2 °F /  -13.8 °C 1012.4 in /  34279.9 hPa NNE 22.7 mph /  36.5 km/h 22.7 mph /  36.5 km/h 91 % 0.0 in /  0 mm
15:37 8.5 °F /  -13.1 °C 7.1 °F /  -13.8 °C 1012.1 in /  34269.7 hPa ENE 13.0 mph /  20.9 km/h 27.4 mph /  44.1 km/h 91 % 0.0 in /  0 mm
15:43 8.5 °F /  -13.1 °C 7.1 °F /  -13.8 °C 1011.4 in /  34246 hPa NNE 24.1 mph /  38.8 km/h 33.8 mph /  54.4 km/h 91 % 0.0 in /  0 mm
15:49 8.4 °F /  -13.1 °C 7.0 °F /  -13.9 °C 1011.4 in /  34246 hPa NNE 22.7 mph /  36.5 km/h 33.8 mph /  54.4 km/h 91 % 0.0 in /  0 mm
15:57 8.4 °F /  -13.1 °C 7.0 °F /  -13.9 °C 1012.1 in /  34269.7 hPa NNE 20.9 mph /  33.6 km/h 25.7 mph /  41.4 km/h 91 % 0.0 in /  0 mm
16:05 8.3 °F /  -13.2 °C 6.9 °F /  -13.9 °C 1012.8 in /  34293.4 hPa East 3.2 mph /  5.1 km/h 9.7 mph /  15.6 km/h 91 % 0.0 in /  0 mm
16:11 8.3 °F /  -13.2 °C 6.9 °F /  -13.9 °C 1013.1 in /  34303.6 hPa ESE 1.4 mph /  2.3 km/h 8.0 mph /  12.9 km/h 91 % 0.0 in /  0 mm
16:17 8.4 °F /  -13.1 °C 7.0 °F /  -13.9 °C 1013.4 in /  34313.7 hPa East 4.7 mph /  7.6 km/h 8.0 mph /  12.9 km/h 91 % 0.0 in /  0 mm
16:23 8.3 °F /  -13.2 °C 6.9 °F /  -13.9 °C 1013.1 in /  34303.6 hPa NE 16.3 mph /  26.2 km/h 19.3 mph /  31.1 km/h 91 % 0.0 in /  0 mm
16:33 8.3 °F /  -13.2 °C 6.9 °F /  -13.9 °C 1013.1 in /  34303.6 hPa ENE 13.0 mph /  20.9 km/h 17.7 mph /  28.5 km/h 91 % 0.0 in /  0 mm
16:39 8.3 °F /  -13.2 °C 6.9 °F /  -13.9 °C 1012.8 in /  34293.4 hPa NNE 4.7 mph /  7.6 km/h 19.3 mph /  31.1 km/h 91 % 0.0 in /  0 mm
16:45 8.3 °F /  -13.2 °C 6.9 °F /  -13.9 °C 1013.1 in /  34303.6 hPa NE 4.7 mph /  7.6 km/h 19.3 mph /  31.1 km/h 91 % 0.0 in /  0 mm
16:52 8.3 °F /  -13.2 °C 6.9 °F /  -13.9 °C 1013.1 in /  34303.6 hPa North 6.4 mph /  10.3 km/h 11.3 mph /  18.2 km/h 91 % 0.0 in /  0 mm
16:57 8.2 °F /  -13.2 °C 6.8 °F /  -14 °C 1013.4 in /  34313.7 hPa NNE 6.4 mph /  10.3 km/h 17.7 mph /  28.5 km/h 91 % 0.0 in /  0 mm
17:03 8.3 °F /  -13.2 °C 6.9 °F /  -13.9 °C 1013.4 in /  34313.7 hPa North 7.9 mph /  12.7 km/h 20.9 mph /  33.6 km/h 91 % 0.0 in /  0 mm
17:11 8.2 °F /  -13.2 °C 6.8 °F /  -14 °C 1013.4 in /  34313.7 hPa NE 6.4 mph /  10.3 km/h 8.0 mph /  12.9 km/h 91 % 0.0 in /  0 mm
17:19 8.3 °F /  -13.2 °C 6.9 °F /  -13.9 °C 1013.4 in /  34313.7 hPa NE 16.3 mph /  26.2 km/h 19.3 mph /  31.1 km/h 91 % 0.0 in /  0 mm
17:28 8.3 °F /  -13.2 °C 6.9 °F /  -13.9 °C 1013.4 in /  34313.7 hPa North 6.4 mph /  10.3 km/h 17.7 mph /  28.5 km/h 91 % 0.0 in /  0 mm
17:34 8.3 °F /  -13.2 °C 6.9 °F /  -13.9 °C 1013.4 in /  34313.7 hPa NNW 11.1 mph /  17.9 km/h 19.3 mph /  31.1 km/h 91 % 0.0 in /  0 mm
17:39 8.2 °F /  -13.2 °C 6.8 °F /  -14 °C 1013.4 in /  34313.7 hPa NE 9.7 mph /  15.6 km/h 14.5 mph /  23.3 km/h 91 % 0.0 in /  0 mm
17:45 8.2 °F /  -13.2 °C 6.8 °F /  -14 °C 1013.4 in /  34313.7 hPa NNW 14.3 mph /  23 km/h 17.7 mph /  28.5 km/h 91 % 0.0 in /  0 mm
17:54 8.1 °F /  -13.3 °C 6.7 °F /  -14.1 °C 1013.4 in /  34313.7 hPa NNE 3.2 mph /  5.1 km/h 14.5 mph /  23.3 km/h 91 % 0.0 in /  0 mm
18:00 8.1 °F /  -13.3 °C 6.7 °F /  -14.1 °C 1013.4 in /  34313.7 hPa NE 24.1 mph /  38.8 km/h 25.7 mph /  41.4 km/h 91 % 0.0 in /  0 mm
18:04 8.1 °F /  -13.3 °C 6.6 °F /  -14.1 °C 1013.8 in /  34327.3 hPa NNE 19.5 mph /  31.4 km/h 24.1 mph /  38.8 km/h 90 % 0.0 in /  0 mm
18:10 8.2 °F /  -13.2 °C 6.7 °F /  -14.1 °C 1014.1 in /  34337.4 hPa NNE 7.9 mph /  12.7 km/h 16.1 mph /  25.9 km/h 90 % 0.0 in /  0 mm
18:16 8.1 °F /  -13.3 °C 6.6 °F /  -14.1 °C 1014.1 in /  34337.4 hPa NE 13.0 mph /  20.9 km/h 17.7 mph /  28.5 km/h 90 % 0.0 in /  0 mm
18:24 8.1 °F /  -13.3 °C 6.6 °F /  -14.1 °C 1013.8 in /  34327.3 hPa NE 16.3 mph /  26.2 km/h 27.4 mph /  44.1 km/h 90 % 0.0 in /  0 mm
18:30 8.1 °F /  -13.3 °C 6.6 °F /  -14.1 °C 1013.8 in /  34327.3 hPa NE 13.0 mph /  20.9 km/h 32.2 mph /  51.8 km/h 90 % 0.0 in /  0 mm
18:34 8.0 °F /  -13.3 °C 6.5 °F /  -14.2 °C 1013.8 in /  34327.3 hPa NE 3.2 mph /  5.1 km/h 20.9 mph /  33.6 km/h 90 % 0.0 in /  0 mm
18:36 8.0 °F /  -13.3 °C 6.6 °F /  -14.1 °C 1013.8 in /  34327.3 hPa North 19.5 mph /  31.4 km/h 22.5 mph /  36.2 km/h 91 % 0.0 in /  0 mm
18:40 8.0 °F /  -13.3 °C 6.6 °F /  -14.1 °C 1013.8 in /  34327.3 hPa NNW 9.7 mph /  15.6 km/h 20.9 mph /  33.6 km/h 91 % 0.0 in /  0 mm
18:42 8.0 °F /  -13.3 °C 6.6 °F /  -14.1 °C 1013.8 in /  34327.3 hPa NE 17.7 mph /  28.5 km/h 22.5 mph /  36.2 km/h 91 % 0.0 in /  0 mm
18:47 8.0 °F /  -13.3 °C 6.6 °F /  -14.1 °C 1013.8 in /  34327.3 hPa NE 17.7 mph /  28.5 km/h 22.5 mph /  36.2 km/h 91 % 0.0 in /  0 mm
18:54 8.0 °F /  -13.3 °C 6.6 °F /  -14.1 °C 1014.4 in /  34347.6 hPa NNE 9.7 mph /  15.6 km/h 12.9 mph /  20.8 km/h 91 % 0.0 in /  0 mm
18:58 8.0 °F /  -13.3 °C 6.5 °F /  -14.2 °C 1014.4 in /  34347.6 hPa NNE 14.3 mph /  23 km/h 17.7 mph /  28.5 km/h 90 % 0.0 in /  0 mm
19:00 8.0 °F /  -13.3 °C 6.5 °F /  -14.2 °C 1014.4 in /  34347.6 hPa NE 7.9 mph /  12.7 km/h 17.7 mph /  28.5 km/h 90 % 0.0 in /  0 mm
19:04 8.0 °F /  -13.3 °C 6.5 °F /  -14.2 °C 1014.4 in /  34347.6 hPa NE 14.3 mph /  23 km/h 24.1 mph /  38.8 km/h 90 % 0.0 in /  0 mm
19:10 8.0 °F /  -13.3 °C 6.5 °F /  -14.2 °C 1014.4 in /  34347.6 hPa North 6.4 mph /  10.3 km/h 16.1 mph /  25.9 km/h 90 % 0.0 in /  0 mm
19:16 8.0 °F /  -13.3 °C 6.5 °F /  -14.2 °C 1014.4 in /  34347.6 hPa ENE 4.7 mph /  7.6 km/h 17.7 mph /  28.5 km/h 90 % 0.0 in /  0 mm
19:22 7.9 °F /  -13.4 °C 6.4 °F /  -14.2 °C 1014.4 in /  34347.6 hPa NE 7.9 mph /  12.7 km/h 17.7 mph /  28.5 km/h 90 % 0.0 in /  0 mm
19:24 7.9 °F /  -13.4 °C 6.4 °F /  -14.2 °C 1014.4 in /  34347.6 hPa NE 11.1 mph /  17.9 km/h 19.3 mph /  31.1 km/h 90 % 0.0 in /  0 mm
19:28 7.9 °F /  -13.4 °C 6.4 °F /  -14.2 °C 1014.8 in /  34361.1 hPa NE 14.3 mph /  23 km/h 24.1 mph /  38.8 km/h 90 % 0.0 in /  0 mm
19:34 7.9 °F /  -13.4 °C 6.4 °F /  -14.2 °C 1014.8 in /  34361.1 hPa NE 17.7 mph /  28.5 km/h 19.3 mph /  31.1 km/h 90 % 0.0 in /  0 mm
19:41 7.9 °F /  -13.4 °C 6.4 °F /  -14.2 °C 1014.8 in /  34361.1 hPa NNE 19.5 mph /  31.4 km/h 22.5 mph /  36.2 km/h 90 % 0.0 in /  0 mm
19:46 7.9 °F /  -13.4 °C 6.4 °F /  -14.2 °C 1014.8 in /  34361.1 hPa ENE 14.3 mph /  23 km/h 20.9 mph /  33.6 km/h 90 % 0.0 in /  0 mm
19:52 7.9 °F /  -13.4 °C 6.4 °F /  -14.2 °C 1014.8 in /  34361.1 hPa NE 13.0 mph /  20.9 km/h 19.3 mph /  31.1 km/h 90 % 0.0 in /  0 mm
19:59 7.9 °F /  -13.4 °C 6.4 °F /  -14.2 °C 1014.8 in /  34361.1 hPa NE 16.3 mph /  26.2 km/h 20.9 mph /  33.6 km/h 90 % 0.0 in /  0 mm
20:06 7.9 °F /  -13.4 °C 6.4 °F /  -14.2 °C 1014.8 in /  34361.1 hPa NNE 16.3 mph /  26.2 km/h 24.1 mph /  38.8 km/h 90 % 0.0 in /  0 mm
20:12 7.9 °F /  -13.4 °C 6.4 °F /  -14.2 °C 1014.4 in /  34347.6 hPa NE 16.3 mph /  26.2 km/h 19.3 mph /  31.1 km/h 90 % 0.0 in /  0 mm
20:18 7.9 °F /  -13.4 °C 6.4 °F /  -14.2 °C 1014.4 in /  34347.6 hPa NNW 7.9 mph /  12.7 km/h 20.9 mph /  33.6 km/h 90 % 0.0 in /  0 mm
20:24 7.8 °F /  -13.4 °C 6.3 °F /  -14.3 °C 1014.4 in /  34347.6 hPa NNE 6.4 mph /  10.3 km/h 14.5 mph /  23.3 km/h 90 % 0.0 in /  0 mm
20:30 7.8 °F /  -13.4 °C 6.3 °F /  -14.3 °C 1014.4 in /  34347.6 hPa NW 7.9 mph /  12.7 km/h 12.9 mph /  20.8 km/h 90 % 0.0 in /  0 mm
20:36 7.7 °F /  -13.5 °C 6.2 °F /  -14.3 °C 1014.4 in /  34347.6 hPa NNW 4.7 mph /  7.6 km/h 16.1 mph /  25.9 km/h 90 % 0.0 in /  0 mm
20:42 7.7 °F /  -13.5 °C 6.3 °F /  -14.3 °C 1014.4 in /  34347.6 hPa NW 13.0 mph /  20.9 km/h 19.3 mph /  31.1 km/h 91 % 0.0 in /  0 mm
20:48 7.7 °F /  -13.5 °C 6.3 °F /  -14.3 °C 1014.8 in /  34361.1 hPa NNE 13.0 mph /  20.9 km/h 13.0 mph /  20.9 km/h 91 % 0.0 in /  0 mm
20:54 7.7 °F /  -13.5 °C 6.3 °F /  -14.3 °C 1014.4 in /  34347.6 hPa North 17.7 mph /  28.5 km/h 20.9 mph /  33.6 km/h 91 % 0.0 in /  0 mm
21:00 7.7 °F /  -13.5 °C 6.3 °F /  -14.3 °C 1014.8 in /  34361.1 hPa NE 13.0 mph /  20.9 km/h 17.7 mph /  28.5 km/h 91 % 0.0 in /  0 mm
21:02 7.7 °F /  -13.5 °C 6.3 °F /  -14.3 °C 1014.8 in /  34361.1 hPa NNW 4.7 mph /  7.6 km/h 16.1 mph /  25.9 km/h 91 % 0.0 in /  0 mm
21:08 7.7 °F /  -13.5 °C 6.3 °F /  -14.3 °C 1015.1 in /  34371.3 hPa NE 6.4 mph /  10.3 km/h 22.5 mph /  36.2 km/h 91 % 0.0 in /  0 mm
21:18 7.8 °F /  -13.4 °C 6.3 °F /  -14.3 °C 1015.1 in /  34371.3 hPa NE 7.9 mph /  12.7 km/h 17.7 mph /  28.5 km/h 90 % 0.0 in /  0 mm
21:24 7.7 °F /  -13.5 °C 6.2 °F /  -14.3 °C 1015.1 in /  34371.3 hPa NE 7.9 mph /  12.7 km/h 16.1 mph /  25.9 km/h 90 % 0.0 in /  0 mm
21:32 7.7 °F /  -13.5 °C 6.2 °F /  -14.3 °C 1015.5 in /  34384.8 hPa WNW 4.7 mph /  7.6 km/h 12.9 mph /  20.8 km/h 90 % 0.0 in /  0 mm
21:38 7.6 °F /  -13.6 °C 6.2 °F /  -14.3 °C 1015.1 in /  34371.3 hPa North 13.0 mph /  20.9 km/h 16.1 mph /  25.9 km/h 91 % 0.0 in /  0 mm
21:44 7.6 °F /  -13.6 °C 6.2 °F /  -14.3 °C 1015.1 in /  34371.3 hPa NE 6.4 mph /  10.3 km/h 11.3 mph /  18.2 km/h 91 % 0.0 in /  0 mm
21:53 7.6 °F /  -13.6 °C 6.2 °F /  -14.3 °C 1015.1 in /  34371.3 hPa NE 14.5 mph /  23.3 km/h 14.5 mph /  23.3 km/h 91 % 0.0 in /  0 mm
22:02 7.6 °F /  -13.6 °C 6.2 °F /  -14.3 °C 1014.8 in /  34361.1 hPa NNW 4.7 mph /  7.6 km/h 19.3 mph /  31.1 km/h 91 % 0.0 in /  0 mm
22:08 7.4 °F /  -13.7 °C 6.0 °F /  -14.4 °C 1014.4 in /  34347.6 hPa North 14.3 mph /  23 km/h 17.7 mph /  28.5 km/h 91 % 0.0 in /  0 mm
22:14 7.4 °F /  -13.7 °C 6.0 °F /  -14.4 °C 1014.1 in /  34337.4 hPa North 16.3 mph /  26.2 km/h 24.1 mph /  38.8 km/h 91 % 0.0 in /  0 mm
22:20 7.3 °F /  -13.7 °C 5.9 °F /  -14.5 °C 1014.1 in /  34337.4 hPa NNW 6.4 mph /  10.3 km/h 19.3 mph /  31.1 km/h 91 % 0.0 in /  0 mm
22:30 7.2 °F /  -13.8 °C 5.8 °F /  -14.6 °C 1014.4 in /  34347.6 hPa NW 3.2 mph /  5.1 km/h 12.9 mph /  20.8 km/h 91 % 0.0 in /  0 mm
22:32 7.2 °F /  -13.8 °C 5.8 °F /  -14.6 °C 1014.4 in /  34347.6 hPa North 13.0 mph /  20.9 km/h 14.5 mph /  23.3 km/h 91 % 0.0 in /  0 mm
22:36 7.2 °F /  -13.8 °C 5.8 °F /  -14.6 °C 1014.4 in /  34347.6 hPa Calm   6.4 mph /  10.3 km/h 91 % 0.0 in /  0 mm
22:38 7.1 °F /  -13.8 °C 5.7 °F /  -14.6 °C 1014.8 in /  34361.1 hPa North 4.7 mph /  7.6 km/h 11.3 mph /  18.2 km/h 91 % 0.0 in /  0 mm
22:46 7.2 °F /  -13.8 °C 5.8 °F /  -14.6 °C 1014.4 in /  34347.6 hPa NW 6.4 mph /  10.3 km/h 24.1 mph /  38.8 km/h 91 % 0.0 in /  0 mm
22:54 7.1 °F /  -13.8 °C 5.7 °F /  -14.6 °C 1014.4 in /  34347.6 hPa NNE 13.0 mph /  20.9 km/h 16.1 mph /  25.9 km/h 91 % 0.0 in /  0 mm
23:02 7.1 °F /  -13.8 °C 5.7 °F /  -14.6 °C 1014.4 in /  34347.6 hPa NNE 13.0 mph /  20.9 km/h 22.5 mph /  36.2 km/h 91 % 0.0 in /  0 mm
23:12 6.9 °F /  -13.9 °C 5.5 °F /  -14.7 °C 1014.4 in /  34347.6 hPa NNW 4.7 mph /  7.6 km/h 12.9 mph /  20.8 km/h 91 % 0.0 in /  0 mm
23:18 6.9 °F /  -13.9 °C 5.5 °F /  -14.7 °C 1014.8 in /  34361.1 hPa NNE 6.4 mph /  10.3 km/h 11.3 mph /  18.2 km/h 91 % 0.0 in /  0 mm
23:26 7.0 °F /  -13.9 °C 5.6 °F /  -14.7 °C 1014.8 in /  34361.1 hPa NE 9.7 mph /  15.6 km/h 14.5 mph /  23.3 km/h 91 % 0.0 in /  0 mm
23:32 6.9 °F /  -13.9 °C 5.5 °F /  -14.7 °C 1014.8 in /  34361.1 hPa NNW 9.7 mph /  15.6 km/h 16.1 mph /  25.9 km/h 91 % 0.0 in /  0 mm
23:38 6.9 °F /  -13.9 °C 5.5 °F /  -14.7 °C 1015.1 in /  34371.3 hPa NE 4.7 mph /  7.6 km/h 12.9 mph /  20.8 km/h 91 % 0.0 in /  0 mm
23:47 6.9 °F /  -13.9 °C 5.5 °F /  -14.7 °C 1015.1 in /  34371.3 hPa ENE 11.1 mph /  17.9 km/h 16.1 mph /  25.9 km/h 91 % 0.0 in /  0 mm
23:53 6.9 °F /  -13.9 °C 5.5 °F /  -14.7 °C 1015.1 in /  34371.3 hPa NE 4.7 mph /  7.6 km/h 14.5 mph /  23.3 km/h 91 % 0.0 in /  0 mm
23:58 6.9 °F /  -13.9 °C 5.7 °F /  -14.6 °C 1015.1 in /  34371.3 hPa NE 4.7 mph /  7.6 km/h 17.7 mph /  28.5 km/h 92 % 0.0 in /  0 mm
Meteo18
Compliments of Weather Underground - 4 mb

Script developed by  Jim McMurry - jmcmurry@mwt.net Adapted for the template by  Wim van der Kuil - Leuven-Template.eu

You find our weather info also at:

European Weather Network

Weather Underground

Equipment we use:

Weather-station
Davis Vue

Weather-program
Meteobridge

Weather-server
Raspberry PI 2 B+

Provider
1 and 1

Davis Vue

Meteobridge

Raspberry PI 2 B+

1 and 1